Meridien — FT2092 — position and weather

sailwx.info

Track history (hours):
 
Tides and Currents Weather Stations Pressure Air Temp Water Temp Dewpoint Dewpoint Depression Visibility Wind Speed Wind Dir Waves Ship Positions

Meridien

Last reported at 2015-Jan-29 14:33 UTC. Time now 2015-Jan-30 20:07 UTC.
Position N 43°24' E 004°60'.

Length 21 m.

MMSI: 227321780.

Date/timePositionNaut miles runAvg speedWind from/ knotsBaromVisibWave heightAir tempDewpointWater temp
2015-Jan-29 14:33N 43°24' E 004°60'5 2.5
2015-Jan-29 12:31N 43°19' E 004°59'1 0.4
2015-Jan-29 10:14N 43°20' E 004°59'2 0.2
2015-Jan-29 02:33N 43°22' E 004°58'2 0.1
2015-Jan-28 11:29N 43°20' E 004°60'1 0.2
2015-Jan-28 07:17N 43°19' E 004°59'5 0.3
2015-Jan-27 15:21N 43°24' E 004°60'0 0.0
2015-Jan-27 14:34N 43°24' E 004°60'0 0.0
2015-Jan-27 13:34N 43°24' E 004°60'0 0.0
2015-Jan-27 12:34N 43°24' E 004°60'0 0.0
2015-Jan-26 14:30N 43°24' E 004°60'5 4.9
2015-Jan-26 13:33N 43°20' E 004°57'1 0.2
2015-Jan-26 08:30N 43°20' E 004°58'1 1.0
2015-Jan-26 07:05N 43°19' E 004°60'2 3.2
2015-Jan-26 06:20N 43°19' E 004°56'  
2015-Jan-23 11:29N 43°24' E 004°60'2 2.1
2015-Jan-23 10:33N 43°24' E 005°02'2 1.4
2015-Jan-23 09:11N 43°24' E 004°60'4 7.0
2015-Jan-23 08:33N 43°20' E 004°60'4 3.1
2015-Jan-23 07:15N 43°19' E 004°55'3 3.7
2015-Jan-23 06:33N 43°17' E 004°52'4 3.6
2015-Jan-23 05:27N 43°17' E 004°46'2 2.1
2015-Jan-23 04:33N 43°18' E 004°48'6 3.1
2015-Jan-23 02:33N 43°21' E 004°56'4 0.4
2015-Jan-22 15:33N 43°24' E 004°60'4 3.6
2015-Jan-22 14:33N 43°21' E 005°01'8 2.4
2015-Jan-22 11:06N 43°13' E 005°04'3 1.1
2015-Jan-22 08:08N 43°13' E 005°00'7 1.3
2015-Jan-22 02:26N 43°20' E 004°58'1 0.1
2015-Jan-21 12:12N 43°20' E 004°59'2 1.0
2015-Jan-21 10:24N 43°20' E 004°57'1 0.1
2015-Jan-21 02:33N 43°20' E 004°58'5 0.5
2015-Jan-20 16:08N 43°24' E 004°60'0 0.1
2015-Jan-20 15:33N 43°24' E 004°60'0 0.0
2015-Jan-20 14:33N 43°24' E 004°60'4 3.7
2015-Jan-20 13:33N 43°21' E 004°58'2 0.9
2015-Jan-20 11:32N 43°19' E 004°59'1 0.1
2015-Jan-20 02:20N 43°20' E 004°59'4 0.4
2015-Jan-19 16:06N 43°24' E 004°60'0 0.2
2015-Jan-19 15:34N 43°24' E 004°60'  
Track history (hours):
 
Tides and Currents Weather Stations Pressure Air Temp Water Temp Dewpoint Dewpoint Depression Visibility Wind Speed Wind Dir Waves Ship Positions

Meridien

Last reported at 2015-Jan-29 14:33 UTC. Time now 2015-Jan-30 20:07 UTC.
Position N 43°24' E 004°60'.

Length 21 m.

MMSI: 227321780.

Date/timePositionNaut miles runAvg speedWind from/ knotsBaromVisibWave heightAir tempDewpointWater temp
2015-Jan-29 14:33N 43°24' E 004°60'5 2.5
2015-Jan-29 12:31N 43°19' E 004°59'1 0.4
2015-Jan-29 10:14N 43°20' E 004°59'2 0.2
2015-Jan-29 02:33N 43°22' E 004°58'2 0.1
2015-Jan-28 11:29N 43°20' E 004°60'1 0.2
2015-Jan-28 07:17N 43°19' E 004°59'5 0.3
2015-Jan-27 15:21N 43°24' E 004°60'0 0.0
2015-Jan-27 14:34N 43°24' E 004°60'0 0.0
2015-Jan-27 13:34N 43°24' E 004°60'0 0.0
2015-Jan-27 12:34N 43°24' E 004°60'0 0.0
2015-Jan-26 14:30N 43°24' E 004°60'5 4.9
2015-Jan-26 13:33N 43°20' E 004°57'1 0.2
2015-Jan-26 08:30N 43°20' E 004°58'1 1.0
2015-Jan-26 07:05N 43°19' E 004°60'2 3.2
2015-Jan-26 06:20N 43°19' E 004°56'  
2015-Jan-23 11:29N 43°24' E 004°60'2 2.1
2015-Jan-23 10:33N 43°24' E 005°02'2 1.4
2015-Jan-23 09:11N 43°24' E 004°60'4 7.0
2015-Jan-23 08:33N 43°20' E 004°60'4 3.1
2015-Jan-23 07:15N 43°19' E 004°55'3 3.7
2015-Jan-23 06:33N 43°17' E 004°52'4 3.6
2015-Jan-23 05:27N 43°17' E 004°46'2 2.1
2015-Jan-23 04:33N 43°18' E 004°48'6 3.1
2015-Jan-23 02:33N 43°21' E 004°56'4 0.4
2015-Jan-22 15:33N 43°24' E 004°60'4 3.6
2015-Jan-22 14:33N 43°21' E 005°01'8 2.4
2015-Jan-22 11:06N 43°13' E 005°04'3 1.1
2015-Jan-22 08:08N 43°13' E 005°00'7 1.3
2015-Jan-22 02:26N 43°20' E 004°58'1 0.1
2015-Jan-21 12:12N 43°20' E 004°59'2 1.0
2015-Jan-21 10:24N 43°20' E 004°57'1 0.1
2015-Jan-21 02:33N 43°20' E 004°58'5 0.5
2015-Jan-20 16:08N 43°24' E 004°60'0 0.1
2015-Jan-20 15:33N 43°24' E 004°60'0 0.0
2015-Jan-20 14:33N 43°24' E 004°60'4 3.7
2015-Jan-20 13:33N 43°21' E 004°58'2 0.9
2015-Jan-20 11:32N 43°19' E 004°59'1 0.1
2015-Jan-20 02:20N 43°20' E 004°59'4 0.4
2015-Jan-19 16:06N 43°24' E 004°60'0 0.2
2015-Jan-19 15:34N 43°24' E 004°60'  

Dump ship's entire track history